Antis, Pennsylvania
Current Conditions -  °F | °C
As of 5:53 PM on Tuesday 27 Jan 2015 (Local Time) from KAOO Reporting Station
Overcast Overcast  
Wind Chill:   Ceiling: 4800
Heat Index: 22°   Visibility: 10mi
Dew Point: 15°   Wind: 16mph
Humidity: 75%   Direction: 300°WNW
Pressure: 29.88"   Gusts: 28mph
Location:  40.6274°N, 78.3392°W
Report Text: KAOO 272253Z AUTO 30014G24KT 10SM OVC048 M06/M09 A2988 RMK AO2 SNE21 SLP139 P0000 T10561094
Loading
Personal Weather Stations






























Interactive Weather Map New forecast layout! Learn more

10-Day Weather Forecast

Advertisements
Track Severe Weather on mobile